createdAt,value
2022-09-15T00:00:49.968Z,8.00
2022-09-15T00:03:17.529Z,5.10
2022-09-15T00:05:44.944Z,9.40
2022-09-15T00:08:13.387Z,4.70
2022-09-15T00:10:52.642Z,5.60
2022-09-15T00:13:20.364Z,5.00
2022-09-15T00:15:47.226Z,5.50
2022-09-15T00:18:14.320Z,6.10
2022-09-15T00:20:45.246Z,4.40
2022-09-15T00:23:14.216Z,5.00
2022-09-15T00:25:43.427Z,5.20
2022-09-15T00:28:10.311Z,4.60
2022-09-15T00:30:41.744Z,6.80
2022-09-15T00:33:08.716Z,5.60
2022-09-15T00:35:40.243Z,5.20
2022-09-15T00:38:07.983Z,6.80
2022-09-15T00:40:35.567Z,6.50
2022-09-15T00:43:02.407Z,4.20
2022-09-15T00:45:29.740Z,5.20
2022-09-15T00:47:56.687Z,4.50
2022-09-15T00:50:23.575Z,5.10
2022-09-15T00:52:54.771Z,7.40
2022-09-15T00:55:28.378Z,7.50
2022-09-15T00:57:59.415Z,7.70
2022-09-15T01:00:27.881Z,7.50
2022-09-15T01:02:55.219Z,6.70
2022-09-15T01:05:24.428Z,7.60
2022-09-15T01:07:59.339Z,6.20
2022-09-15T01:10:30.453Z,4.90
2022-09-15T01:12:59.523Z,5.10
2022-09-15T01:15:46.513Z,5.50
2022-09-15T01:18:26.572Z,6.00
2022-09-15T01:20:56.612Z,7.10
2022-09-15T01:23:55.357Z,7.30
2022-09-15T01:27:13.852Z,8.00
2022-09-15T01:30:20.878Z,8.60
2022-09-15T01:33:06.191Z,3.50
2022-09-15T01:35:36.100Z,5.70
2022-09-15T01:38:25.716Z,6.70
2022-09-15T01:40:57.976Z,8.30
2022-09-15T01:43:25.268Z,7.00
2022-09-15T01:45:52.452Z,9.10
2022-09-15T01:48:21.134Z,6.80
2022-09-15T01:50:53.724Z,7.10
2022-09-15T01:53:21.164Z,5.50
2022-09-15T01:55:55.132Z,4.20
2022-09-15T01:58:22.367Z,4.20
2022-09-15T02:01:05.206Z,3.90
2022-09-15T02:04:01.274Z,5.60
2022-09-15T02:06:36.725Z,5.80
2022-09-15T02:11:35.526Z,4.30
2022-09-15T02:14:28.513Z,5.40
2022-09-15T02:16:56.113Z,4.00
2022-09-15T02:20:03.438Z,4.00
2022-09-15T02:22:31.288Z,4.20
2022-09-15T02:25:02.298Z,7.60
2022-09-15T02:27:31.786Z,7.40
2022-09-15T02:30:03.371Z,5.90
2022-09-15T02:32:30.524Z,4.70
2022-09-15T02:34:57.426Z,5.50
2022-09-15T02:37:25.011Z,4.70
2022-09-15T02:39:54.993Z,4.00
2022-09-15T02:42:24.674Z,6.40
2022-09-15T02:44:52.013Z,5.70
2022-09-15T02:47:19.019Z,5.80
2022-09-15T02:49:46.081Z,4.60
2022-09-15T02:52:13.013Z,10.50
2022-09-15T02:54:40.263Z,7.20
2022-09-15T02:57:07.162Z,3.90
2022-09-15T02:59:53.665Z,3.60
2022-09-15T03:02:20.869Z,6.00
2022-09-15T03:04:48.167Z,4.50
2022-09-15T03:07:15.675Z,5.30
2022-09-15T03:09:43.019Z,7.40
2022-09-15T03:12:10.119Z,4.90
2022-09-15T03:14:37.572Z,5.10
2022-09-15T03:17:04.446Z,4.90
2022-09-15T03:19:31.953Z,3.70
2022-09-15T03:21:58.827Z,4.30
2022-09-15T03:24:25.842Z,5.10
2022-09-15T03:26:53.498Z,5.50
2022-09-15T03:29:20.418Z,7.30
2022-09-15T03:31:47.489Z,6.90
2022-09-15T03:34:14.682Z,5.90
2022-09-15T03:36:41.743Z,3.80
2022-09-15T03:39:09.559Z,4.30
2022-09-15T03:41:37.199Z,7.30
2022-09-15T03:44:04.080Z,4.60
2022-09-15T03:46:31.216Z,4.40
2022-09-15T03:48:58.414Z,8.10
2022-09-15T03:51:25.276Z,6.50
2022-09-15T03:53:52.549Z,6.00
2022-09-15T03:56:33.004Z,3.70
2022-09-15T03:59:01.901Z,4.10
2022-09-15T04:01:29.869Z,5.50
2022-09-15T04:03:58.518Z,5.20
2022-09-15T04:06:26.110Z,6.60
2022-09-15T04:08:53.360Z,6.60
2022-09-15T04:11:22.777Z,6.90
2022-09-15T04:13:50.092Z,6.20
2022-09-15T04:16:19.013Z,6.50
2022-09-15T04:18:45.970Z,6.30
2022-09-15T04:21:14.540Z,6.10
2022-09-15T04:23:42.031Z,6.60
2022-09-15T04:26:17.341Z,9.60
2022-09-15T04:28:44.175Z,8.50
2022-09-15T04:31:13.428Z,7.90
2022-09-15T04:33:41.203Z,6.20
2022-09-15T04:36:10.006Z,5.70
2022-09-15T04:38:37.787Z,8.30
2022-09-15T04:41:04.867Z,8.30
2022-09-15T04:43:32.192Z,9.40
2022-09-15T04:45:59.338Z,9.90
2022-09-15T04:48:26.549Z,6.60
2022-09-15T04:50:53.736Z,6.60
2022-09-15T04:53:20.771Z,7.80
2022-09-15T04:55:47.683Z,8.00
2022-09-15T04:58:14.727Z,7.60
2022-09-15T05:00:43.683Z,8.90
2022-09-15T05:03:11.870Z,6.10
2022-09-15T05:05:39.774Z,9.90
2022-09-15T05:08:08.198Z,8.60
2022-09-15T05:10:35.428Z,8.20
2022-09-15T05:13:02.285Z,8.40
2022-09-15T05:15:29.923Z,9.50
2022-09-15T05:17:57.048Z,6.40
2022-09-15T05:20:24.250Z,6.90
2022-09-15T05:22:51.040Z,7.50
2022-09-15T05:25:17.952Z,7.90
2022-09-15T05:27:45.092Z,8.10
2022-09-15T05:32:59.490Z,8.50
2022-09-15T05:35:26.591Z,4.90
2022-09-15T05:37:53.341Z,9.00
2022-09-15T05:40:22.379Z,8.60
2022-09-15T05:42:49.513Z,11.80
2022-09-15T05:45:16.494Z,12.40
2022-09-15T05:47:43.939Z,15.20
2022-09-15T05:50:11.531Z,12.00
2022-09-15T05:52:38.572Z,9.10
2022-09-15T05:55:05.666Z,9.50
2022-09-15T05:57:33.264Z,11.20
2022-09-15T06:00:00.153Z,10.50
2022-09-15T06:02:27.205Z,11.70
2022-09-15T06:04:54.195Z,10.20
2022-09-15T06:07:21.235Z,7.40
2022-09-15T06:09:48.547Z,9.10
2022-09-15T06:12:18.132Z,9.60
2022-09-15T06:14:47.335Z,10.70
2022-09-15T06:17:14.611Z,10.40
2022-09-15T06:19:42.913Z,10.00
2022-09-15T06:22:10.157Z,7.50
2022-09-15T06:24:37.340Z,7.50
2022-09-15T06:27:04.504Z,7.40
2022-09-15T06:29:32.667Z,8.40
2022-09-15T06:32:02.929Z,7.80
2022-09-15T06:34:30.017Z,9.90
2022-09-15T06:36:56.859Z,7.50
2022-09-15T06:39:24.208Z,6.80
2022-09-15T06:42:02.389Z,9.90
2022-09-15T06:44:31.716Z,15.40
2022-09-15T06:46:58.719Z,11.60
2022-09-15T06:49:26.123Z,9.90
2022-09-15T06:51:53.610Z,7.10
2022-09-15T06:54:20.535Z,7.90
2022-09-15T06:56:47.419Z,11.40
2022-09-15T06:59:15.223Z,10.90
2022-09-15T07:01:42.045Z,9.00
2022-09-15T07:04:10.080Z,8.80
2022-09-15T07:06:38.937Z,9.60
2022-09-15T07:09:06.110Z,5.00
2022-09-15T07:11:33.355Z,10.50
2022-09-15T07:14:00.530Z,5.90
2022-09-15T07:16:27.505Z,6.20
2022-09-15T07:18:55.188Z,7.80
2022-09-15T07:21:22.060Z,7.30
2022-09-15T07:23:49.375Z,8.80
2022-09-15T07:26:18.338Z,5.00
2022-09-15T07:28:49.968Z,7.40
2022-09-15T07:31:19.203Z,6.50
2022-09-15T07:33:46.327Z,6.90
2022-09-15T07:36:13.344Z,8.80
2022-09-15T07:38:43.119Z,9.40
2022-09-15T07:41:20.586Z,8.00
2022-09-15T07:43:48.588Z,5.10
2022-09-15T07:46:16.281Z,5.80
2022-09-15T07:48:47.423Z,5.80
2022-09-15T07:51:15.193Z,6.30
2022-09-15T07:53:42.907Z,7.00
2022-09-15T07:56:09.742Z,9.00
2022-09-15T07:58:36.991Z,9.20
2022-09-15T08:01:05.073Z,5.30
2022-09-15T08:03:32.683Z,5.90
2022-09-15T08:06:01.447Z,9.40
2022-09-15T08:08:28.622Z,6.80
2022-09-15T08:10:57.789Z,7.60
2022-09-15T08:13:25.166Z,10.10
2022-09-15T08:15:52.592Z,8.70
2022-09-15T08:18:20.083Z,4.70
2022-09-15T08:20:46.918Z,5.50
2022-09-15T08:23:14.008Z,8.00
2022-09-15T08:25:40.968Z,12.70
2022-09-15T08:28:08.552Z,12.60
2022-09-15T08:30:35.804Z,10.20
2022-09-15T08:33:03.694Z,9.50
2022-09-15T08:35:32.546Z,6.70
2022-09-15T08:40:46.529Z,7.70
2022-09-15T08:43:17.491Z,6.90
2022-09-15T08:45:53.714Z,8.30
2022-09-15T08:48:29.341Z,7.80
2022-09-15T08:50:57.558Z,8.30
2022-09-15T08:53:32.560Z,6.90
2022-09-15T08:56:00.362Z,5.20
2022-09-15T08:58:30.075Z,5.40
2022-09-15T09:01:04.420Z,7.80
2022-09-15T09:04:02.483Z,6.30
2022-09-15T09:06:36.316Z,6.00
2022-09-15T09:15:09.894Z,6.40
2022-09-15T09:18:08.971Z,4.70
2022-09-15T09:21:12.579Z,7.60
2022-09-15T09:23:50.658Z,8.50
2022-09-15T09:26:18.069Z,7.50
2022-09-15T09:28:56.462Z,7.30
2022-09-15T09:31:24.886Z,7.50
2022-09-15T09:34:12.214Z,7.40
2022-09-15T09:36:39.097Z,4.70
2022-09-15T09:39:06.226Z,6.70
2022-09-15T09:41:36.586Z,7.20
2022-09-15T09:44:05.477Z,5.80
2022-09-15T09:46:32.332Z,6.30
2022-09-15T09:49:02.289Z,7.60
2022-09-15T09:51:33.768Z,6.30
2022-09-15T09:54:16.918Z,7.30
2022-09-15T09:56:44.908Z,4.30
2022-09-15T09:59:31.920Z,5.20
2022-09-15T10:02:08.237Z,6.20
2022-09-15T10:04:35.872Z,6.50
2022-09-15T10:07:02.757Z,6.70
2022-09-15T10:09:33.246Z,5.80
2022-09-15T10:12:02.182Z,8.60
2022-09-15T10:14:37.051Z,7.60
2022-09-15T10:19:48.060Z,6.10
2022-09-15T10:22:41.264Z,5.00
2022-09-15T10:25:49.313Z,5.80
2022-09-15T10:28:26.069Z,7.40
2022-09-15T10:31:03.430Z,7.30
2022-09-15T10:33:38.247Z,7.00
2022-09-15T10:36:33.278Z,7.90
2022-09-15T10:39:06.197Z,6.20
2022-09-15T10:41:35.096Z,4.40
2022-09-15T10:44:08.123Z,5.80
2022-09-15T10:46:52.221Z,4.70
2022-09-15T10:49:50.546Z,5.90
2022-09-15T10:52:52.233Z,6.50
2022-09-15T10:55:42.468Z,5.90
2022-09-15T10:58:34.855Z,6.40
2022-09-15T11:01:19.109Z,5.00
2022-09-15T11:03:49.846Z,6.90
2022-09-15T11:06:27.183Z,8.50
2022-09-15T11:09:26.319Z,9.70
2022-09-15T11:12:30.973Z,6.90
2022-09-15T11:15:05.452Z,4.10
2022-09-15T11:17:55.226Z,5.70
2022-09-15T11:20:47.224Z,6.30
2022-09-15T11:23:24.498Z,5.50
2022-09-15T11:25:57.437Z,4.20
2022-09-15T11:28:35.164Z,3.50
2022-09-15T11:31:11.551Z,5.40
2022-09-15T11:33:46.824Z,6.80
2022-09-15T11:36:23.139Z,6.40
2022-09-15T11:38:54.072Z,5.90
2022-09-15T11:41:46.052Z,4.90
2022-09-15T11:44:32.943Z,6.10
2022-09-15T11:47:18.711Z,2.80
2022-09-15T11:49:58.689Z,3.40
2022-09-15T11:53:02.956Z,6.10
2022-09-15T11:55:39.789Z,4.20
2022-09-15T11:58:34.302Z,5.90
2022-09-15T12:01:22.505Z,6.80
2022-09-15T12:03:52.917Z,5.00
2022-09-15T12:06:33.614Z,8.70
2022-09-15T12:09:05.358Z,5.20
2022-09-15T12:11:36.100Z,3.80
2022-09-15T12:14:04.378Z,4.80
2022-09-15T12:16:31.983Z,4.90
2022-09-15T12:19:14.742Z,5.50
2022-09-15T12:21:51.994Z,5.30
2022-09-15T12:24:38.928Z,6.20
2022-09-15T12:27:05.896Z,5.00
2022-09-15T12:29:41.920Z,4.50
2022-09-15T12:32:21.595Z,3.80
2022-09-15T12:35:01.938Z,5.60
2022-09-15T12:37:48.879Z,3.00
2022-09-15T12:40:33.281Z,4.10
2022-09-15T12:43:02.300Z,5.50
2022-09-15T12:45:36.056Z,4.80
2022-09-15T12:48:03.865Z,3.20
2022-09-15T12:50:32.255Z,5.30
2022-09-15T12:53:15.184Z,4.10
2022-09-15T12:55:50.555Z,4.50
2022-09-15T12:58:20.778Z,4.60
2022-09-15T13:01:16.567Z,1.90
2022-09-15T13:06:27.916Z,3.50
2022-09-15T13:09:02.124Z,2.80
2022-09-15T13:11:37.560Z,6.00
2022-09-15T13:14:07.338Z,3.30
2022-09-15T13:16:40.360Z,3.00
2022-09-15T13:19:12.068Z,3.80
2022-09-15T13:21:41.047Z,2.40
2022-09-15T13:24:14.656Z,2.30
2022-09-15T13:26:41.695Z,5.20
2022-09-15T13:29:09.152Z,4.30
2022-09-15T13:31:53.456Z,5.70
2022-09-15T13:40:27.403Z,7.20
2022-09-15T13:43:40.046Z,4.70
2022-09-15T13:48:55.440Z,6.80
2022-09-15T13:51:25.421Z,7.40
2022-09-15T13:54:08.350Z,7.60
2022-09-15T13:56:38.505Z,7.60
2022-09-15T13:59:14.065Z,16.20
2022-09-15T14:01:42.461Z,11.90
2022-09-15T14:04:14.828Z,15.80
2022-09-15T14:06:43.221Z,10.70
2022-09-15T14:09:50.063Z,9.80
2022-09-15T14:12:17.199Z,6.00
2022-09-15T14:14:46.013Z,9.00
2022-09-15T14:17:20.242Z,7.10
2022-09-15T14:19:49.092Z,5.10
2022-09-15T14:22:22.061Z,5.50
2022-09-15T14:24:50.422Z,5.30
2022-09-15T14:27:23.643Z,6.20
2022-09-15T14:29:55.331Z,7.10
2022-09-15T14:32:23.814Z,18.30
2022-09-15T14:34:51.106Z,16.60
2022-09-15T14:37:21.832Z,7.40
2022-09-15T14:39:50.258Z,9.70
2022-09-15T14:42:23.093Z,8.60
2022-09-15T14:47:40.286Z,8.40
2022-09-15T14:50:21.036Z,10.40
2022-09-15T14:52:59.092Z,11.60
2022-09-15T14:55:36.324Z,6.70
2022-09-15T14:58:30.227Z,13.80
2022-09-15T15:01:02.175Z,19.80
2022-09-15T15:03:32.284Z,17.90
2022-09-15T15:06:12.736Z,17.00
2022-09-15T15:08:51.508Z,24.90
2022-09-15T15:11:18.654Z,27.10
2022-09-15T15:13:48.346Z,13.70
2022-09-15T15:16:26.238Z,11.00
2022-09-15T15:18:53.410Z,18.30
2022-09-15T15:21:43.428Z,20.10
2022-09-15T15:24:13.465Z,17.00
2022-09-15T15:26:44.771Z,17.60
2022-09-15T15:29:43.570Z,19.40
2022-09-15T15:32:15.553Z,12.20
2022-09-15T15:35:18.067Z,13.30
2022-09-15T15:37:45.203Z,15.80
2022-09-15T15:40:23.221Z,15.20
2022-09-15T15:43:00.077Z,13.60
2022-09-15T15:45:28.409Z,11.90
2022-09-15T15:47:55.343Z,12.10
2022-09-15T15:50:25.436Z,9.00
2022-09-15T15:52:52.684Z,11.30
2022-09-15T15:55:23.897Z,13.80
2022-09-15T15:57:52.458Z,10.10
2022-09-15T16:00:24.543Z,9.90
2022-09-15T16:02:51.974Z,8.80
2022-09-15T16:05:19.827Z,11.20
2022-09-15T16:07:47.151Z,7.90
2022-09-15T16:10:19.225Z,7.40
2022-09-15T16:12:47.057Z,8.10
2022-09-15T16:15:18.850Z,8.40
2022-09-15T16:17:47.332Z,12.70
2022-09-15T16:20:19.802Z,14.10
2022-09-15T16:22:46.926Z,10.10
2022-09-15T16:25:25.821Z,7.70
2022-09-15T16:27:52.687Z,7.80
2022-09-15T16:30:19.992Z,11.30
2022-09-15T16:32:46.910Z,10.50
2022-09-15T16:35:39.652Z,9.90
2022-09-15T16:38:07.723Z,8.70
2022-09-15T16:40:37.106Z,10.90
2022-09-15T16:43:04.932Z,8.90
2022-09-15T16:45:40.510Z,10.60
2022-09-15T16:50:35.513Z,31.00
2022-09-15T16:53:02.805Z,31.50
2022-09-15T16:55:33.914Z,32.70
2022-09-15T16:58:02.322Z,23.40
2022-09-15T17:00:30.933Z,14.60
2022-09-15T17:02:57.804Z,16.40
2022-09-15T17:05:27.461Z,19.90
2022-09-15T17:07:55.020Z,16.00
2022-09-15T17:10:22.442Z,15.50
2022-09-15T17:12:49.451Z,16.50
2022-09-15T17:15:22.375Z,14.00
2022-09-15T17:17:49.221Z,8.20
2022-09-15T17:20:17.760Z,7.50
2022-09-15T17:22:45.671Z,8.70
2022-09-15T17:25:21.850Z,10.30
2022-09-15T17:30:01.828Z,12.90
2022-09-15T17:32:32.858Z,9.70
2022-09-15T17:35:22.962Z,6.70
2022-09-15T17:37:51.120Z,10.70
2022-09-15T17:40:19.547Z,14.80
2022-09-15T17:42:47.742Z,14.20
2022-09-15T17:45:25.469Z,13.30
2022-09-15T17:47:52.624Z,12.40
2022-09-15T17:50:21.370Z,10.30
2022-09-15T17:52:48.438Z,6.30
2022-09-15T17:55:17.443Z,7.30
2022-09-15T17:57:44.488Z,7.90
2022-09-15T18:00:13.199Z,7.80
2022-09-15T18:02:41.167Z,6.20
2022-09-15T18:05:31.733Z,7.20
2022-09-15T18:08:00.565Z,8.50
2022-09-15T18:10:28.414Z,8.10
2022-09-15T18:12:55.858Z,5.70
2022-09-15T18:15:26.282Z,9.30
2022-09-15T18:17:55.690Z,7.10
2022-09-15T18:20:24.884Z,7.30
2022-09-15T18:22:51.968Z,7.10
2022-09-15T18:25:31.153Z,10.60
2022-09-15T18:27:58.966Z,7.50
2022-09-15T18:30:28.128Z,8.30
2022-09-15T18:32:56.279Z,11.30
2022-09-15T18:35:23.625Z,10.10
2022-09-15T18:37:55.579Z,10.60
2022-09-15T18:40:22.550Z,10.90
2022-09-15T18:42:49.780Z,8.90
2022-09-15T18:45:17.655Z,6.70
2022-09-15T18:47:49.194Z,5.80
2022-09-15T18:50:17.498Z,5.60
2022-09-15T18:52:44.853Z,6.70
2022-09-15T18:55:15.267Z,5.30
2022-09-15T18:57:42.774Z,7.60
2022-09-15T19:00:18.199Z,7.00
2022-09-15T19:02:45.185Z,3.40
2022-09-15T19:05:15.432Z,4.80
2022-09-15T19:07:45.484Z,6.50
2022-09-15T19:10:13.720Z,6.10
2022-09-15T19:12:41.434Z,6.30
2022-09-15T19:15:10.983Z,6.40
2022-09-15T19:17:39.595Z,7.40
2022-09-15T19:20:08.275Z,4.60
2022-09-15T19:22:36.945Z,5.80
2022-09-15T19:25:04.991Z,7.30
2022-09-15T19:27:33.161Z,6.00
2022-09-15T19:30:00.669Z,7.70
2022-09-15T19:32:27.860Z,8.30
2022-09-15T19:34:54.996Z,7.50
2022-09-15T19:37:22.242Z,7.70
2022-09-15T19:39:49.585Z,4.50
2022-09-15T19:42:17.158Z,6.50
2022-09-15T19:44:44.745Z,5.70
2022-09-15T19:47:12.316Z,7.70
2022-09-15T19:49:39.474Z,7.60
2022-09-15T19:52:06.721Z,7.90
2022-09-15T19:54:34.751Z,8.90
2022-09-15T19:57:01.962Z,6.00
2022-09-15T19:59:31.389Z,6.30
2022-09-15T20:02:00.040Z,5.40
2022-09-15T20:04:28.310Z,6.70
2022-09-15T20:06:59.996Z,5.20
2022-09-15T20:09:27.408Z,6.20
2022-09-15T20:11:54.333Z,3.90
2022-09-15T20:14:21.691Z,5.40
2022-09-15T20:16:49.339Z,4.20
2022-09-15T20:19:16.936Z,4.20
2022-09-15T20:21:51.865Z,7.10
2022-09-15T20:24:19.706Z,4.40
2022-09-15T20:26:47.193Z,5.50
2022-09-15T20:29:14.446Z,2.60
2022-09-15T20:31:41.530Z,2.50
2022-09-15T20:34:08.293Z,3.50
2022-09-15T20:36:36.774Z,4.40
2022-09-15T20:39:05.672Z,5.10
2022-09-15T20:41:33.566Z,3.80
2022-09-15T20:44:00.642Z,3.90
2022-09-15T20:46:29.564Z,2.20
2022-09-15T20:48:57.000Z,2.20
2022-09-15T20:51:25.930Z,2.90
2022-09-15T20:53:55.322Z,2.60
2022-09-15T20:56:25.481Z,3.30
2022-09-15T20:58:54.268Z,3.80
2022-09-15T21:01:26.490Z,2.30
2022-09-15T21:03:55.374Z,1.50
2022-09-15T21:06:24.086Z,2.80
2022-09-15T21:08:51.172Z,2.30
2022-09-15T21:11:19.431Z,4.00
2022-09-15T21:13:47.210Z,2.10
2022-09-15T21:16:19.009Z,3.80
2022-09-15T21:18:46.702Z,3.00
2022-09-15T21:21:21.691Z,2.20
2022-09-15T21:26:18.498Z,2.10
2022-09-15T21:28:45.503Z,3.00
2022-09-15T21:31:13.407Z,2.50
2022-09-15T21:33:40.503Z,2.50
2022-09-15T21:36:11.529Z,2.40
2022-09-15T21:38:40.823Z,2.90
2022-09-15T21:41:09.478Z,1.40
2022-09-15T21:43:37.669Z,1.70
2022-09-15T21:46:05.664Z,2.30
2022-09-15T21:48:33.532Z,3.10
2022-09-15T21:51:00.634Z,2.80
2022-09-15T21:53:27.880Z,2.60
2022-09-15T21:55:56.674Z,1.60
2022-09-15T21:58:26.017Z,2.90
2022-09-15T22:00:53.268Z,1.30
2022-09-15T22:03:20.957Z,3.20
2022-09-15T22:05:48.054Z,1.70
2022-09-15T22:08:16.207Z,1.90
2022-09-15T22:10:43.325Z,1.30
2022-09-15T22:13:11.951Z,2.60
2022-09-15T22:15:39.061Z,2.00
2022-09-15T22:18:06.849Z,3.50
2022-09-15T22:20:36.349Z,1.80
2022-09-15T22:23:03.216Z,1.10
2022-09-15T22:25:30.074Z,3.60
2022-09-15T22:27:57.403Z,3.10
2022-09-15T22:30:24.364Z,2.00
2022-09-15T22:32:51.169Z,2.80
2022-09-15T22:35:18.093Z,4.80
2022-09-15T22:37:45.178Z,3.50
2022-09-15T22:40:12.388Z,1.50
2022-09-15T22:42:39.677Z,1.50
2022-09-15T22:45:08.639Z,3.60
2022-09-15T22:47:35.521Z,2.80
2022-09-15T22:50:02.446Z,3.60
2022-09-15T22:52:29.534Z,4.30
2022-09-15T22:54:56.271Z,3.00
2022-09-15T22:57:23.414Z,4.30
2022-09-15T22:59:50.256Z,1.80
2022-09-15T23:02:17.202Z,2.30
2022-09-15T23:04:44.411Z,3.20
2022-09-15T23:07:11.310Z,3.40
2022-09-15T23:09:38.510Z,3.70
2022-09-15T23:12:06.918Z,3.20
2022-09-15T23:17:01.415Z,4.20
2022-09-15T23:19:28.422Z,4.70
2022-09-15T23:21:55.484Z,3.30
2022-09-15T23:24:22.432Z,3.60
2022-09-15T23:26:49.785Z,3.40
2022-09-15T23:29:18.805Z,3.40
2022-09-15T23:31:46.066Z,4.60
2022-09-15T23:34:13.251Z,7.30
2022-09-15T23:36:40.128Z,4.40
2022-09-15T23:39:07.009Z,3.60
2022-09-15T23:41:34.183Z,4.40
2022-09-15T23:44:01.108Z,4.90
2022-09-15T23:46:29.000Z,4.50
2022-09-15T23:48:56.184Z,5.30
2022-09-15T23:51:23.518Z,5.70
2022-09-15T23:53:50.553Z,3.20
2022-09-15T23:56:17.721Z,4.00
2022-09-15T23:58:44.690Z,4.40
